Terminal Aerodrome Forecast
Issued by NWS Wilmington, OH

Current Version | Previous Version | Graphics & Text | Print | Product List | Glossary On
Versions: 1 2 3 4 5 6 7 8 9 10 11 12 13 14 15 16 17 18 19 20 21 22 23 24 25 26
000
FTUS41 KILN 131700
TAFCVG
TAF
KCVG 131726Z 1318/1424 33010KT P6SM SCT035
     FM132200 35004KT P6SM FEW040
     FM140100 03003KT P6SM SKC
     FM141500 VRB03KT P6SM FEW040
     FM142300 36003KT P6SM SKC=

USA.gov is the U.S. government's official web portal to all federal, state and local government web resources and services.